createdAt,value
2018-12-07T00:01:31.269Z,15.20
2018-12-07T00:03:59.507Z,15.13
2018-12-07T00:06:27.724Z,15.60
2018-12-07T00:08:55.996Z,14.70
2018-12-07T00:11:24.213Z,13.97
2018-12-07T00:13:52.468Z,13.93
2018-12-07T00:16:20.698Z,13.70
2018-12-07T00:18:48.889Z,14.83
2018-12-07T00:21:17.242Z,14.43
2018-12-07T00:23:45.466Z,14.57
2018-12-07T00:26:13.641Z,15.13
2018-12-07T00:28:41.907Z,14.40
2018-12-07T00:31:10.121Z,13.80
2018-12-07T00:33:38.344Z,14.97
2018-12-07T00:36:06.573Z,15.67
2018-12-07T00:38:34.896Z,14.27
2018-12-07T00:41:03.145Z,14.87
2018-12-07T00:43:31.344Z,14.83
2018-12-07T00:45:59.546Z,15.37
2018-12-07T00:48:27.780Z,15.77
2018-12-07T00:50:55.976Z,15.93
2018-12-07T00:53:24.201Z,15.47
2018-12-07T00:55:52.404Z,15.53
2018-12-07T00:58:20.633Z,16.33
2018-12-07T01:00:48.844Z,15.77
2018-12-07T01:03:17.265Z,16.27
2018-12-07T01:05:45.473Z,15.27
2018-12-07T01:08:13.697Z,16.43
2018-12-07T01:10:42.101Z,15.30
2018-12-07T01:13:10.314Z,15.13
2018-12-07T01:15:38.549Z,14.80
2018-12-07T01:18:06.873Z,15.23
2018-12-07T01:20:35.105Z,15.43
2018-12-07T01:23:03.321Z,15.20
2018-12-07T01:25:31.572Z,15.23
2018-12-07T01:27:59.770Z,14.20
2018-12-07T01:30:27.989Z,15.23
2018-12-07T01:32:56.408Z,15.00
2018-12-07T01:35:24.626Z,15.23
2018-12-07T01:37:52.841Z,15.30
2018-12-07T01:40:21.077Z,15.00
2018-12-07T01:42:49.301Z,16.53
2018-12-07T01:45:17.645Z,15.63
2018-12-07T01:47:45.970Z,17.33
2018-12-07T01:50:15.633Z,15.43
2018-12-07T01:52:43.869Z,15.33
2018-12-07T01:55:12.173Z,16.67
2018-12-07T01:57:40.429Z,16.60
2018-12-07T02:00:08.997Z,16.80
2018-12-07T02:02:37.316Z,16.30
2018-12-07T02:05:05.881Z,16.00
2018-12-07T02:07:35.304Z,16.83
2018-12-07T02:10:04.087Z,18.00
2018-12-07T02:12:32.417Z,18.20
2018-12-07T02:15:00.642Z,20.50
2018-12-07T02:17:28.996Z,19.97
2018-12-07T02:19:57.188Z,20.00
2018-12-07T02:22:25.405Z,18.70
2018-12-07T02:24:53.664Z,20.43
2018-12-07T02:27:21.861Z,20.27
2018-12-07T02:29:50.117Z,20.23
2018-12-07T02:32:18.329Z,20.43
2018-12-07T02:34:46.636Z,20.63
2018-12-07T02:37:14.870Z,21.23
2018-12-07T02:39:43.084Z,22.50
2018-12-07T02:42:11.417Z,21.90
2018-12-07T02:44:39.614Z,22.80
2018-12-07T02:47:07.968Z,23.53
2018-12-07T02:49:36.170Z,23.37
2018-12-07T02:52:04.616Z,22.50
2018-12-07T02:54:32.939Z,23.27
2018-12-07T02:57:01.169Z,24.27
2018-12-07T02:59:29.394Z,23.43
2018-12-07T03:01:57.680Z,23.70
2018-12-07T03:04:26.043Z,22.77
2018-12-07T03:06:54.249Z,23.93
2018-12-07T03:09:22.626Z,27.50
2018-12-07T03:11:50.945Z,24.77
2018-12-07T03:14:19.213Z,24.60
2018-12-07T03:16:47.440Z,25.67
2018-12-07T03:19:15.673Z,30.80
2018-12-07T03:21:43.877Z,28.80
2018-12-07T03:24:12.212Z,29.40
2018-12-07T03:26:40.433Z,28.27
2018-12-07T03:29:08.640Z,32.53
2018-12-07T03:31:37.035Z,39.67
2018-12-07T03:34:05.452Z,28.23
2018-12-07T03:36:33.790Z,54.40
2018-12-07T03:39:01.984Z,38.70
2018-12-07T03:41:30.181Z,40.63
2018-12-07T03:43:58.464Z,54.03
2018-12-07T03:46:26.665Z,55.87
2018-12-07T03:48:55.123Z,45.73
2018-12-07T03:51:23.324Z,66.40
2018-12-07T03:53:51.537Z,62.07
2018-12-07T03:56:19.776Z,52.67
2018-12-07T03:58:47.970Z,62.23
2018-12-07T04:01:16.380Z,72.90
2018-12-07T04:03:44.949Z,87.50
2018-12-07T04:06:13.219Z,65.47
2018-12-07T04:08:41.448Z,68.83
2018-12-07T04:11:09.788Z,66.17
2018-12-07T04:13:38.027Z,72.50
2018-12-07T04:16:06.324Z,111.90
2018-12-07T04:18:34.552Z,158.10
2018-12-07T04:21:02.796Z,122.53
2018-12-07T04:23:31.317Z,108.33
2018-12-07T04:25:59.701Z,88.77
2018-12-07T04:28:27.991Z,96.40
2018-12-07T04:30:56.222Z,96.33
2018-12-07T04:33:24.442Z,123.27
2018-12-07T04:35:52.770Z,161.47
2018-12-07T04:38:21.176Z,172.53
2018-12-07T04:40:49.615Z,131.20
2018-12-07T04:43:17.901Z,91.70
2018-12-07T04:45:46.141Z,205.53
2018-12-07T04:48:14.345Z,217.30
2018-12-07T04:50:42.700Z,152.10
2018-12-07T04:53:11.038Z,149.87
2018-12-07T04:55:39.235Z,173.17
2018-12-07T04:58:07.746Z,134.40
2018-12-07T05:00:36.561Z,128.57
2018-12-07T05:03:04.760Z,83.33
2018-12-07T05:05:32.985Z,92.60
2018-12-07T05:08:01.215Z,60.07
2018-12-07T05:10:29.437Z,46.30
2018-12-07T05:12:57.654Z,45.17
2018-12-07T05:15:26.021Z,38.67
2018-12-07T05:17:54.306Z,34.60
2018-12-07T05:20:22.529Z,44.10
2018-12-07T05:22:50.761Z,24.50
2018-12-07T05:25:18.988Z,25.03
2018-12-07T05:27:47.214Z,25.13
2018-12-07T05:30:15.426Z,20.80
2018-12-07T05:32:43.703Z,21.23
2018-12-07T05:35:11.902Z,27.63
2018-12-07T05:37:40.193Z,20.63
2018-12-07T05:40:08.540Z,20.83
2018-12-07T05:42:36.854Z,20.80
2018-12-07T05:45:05.350Z,20.47
2018-12-07T05:47:33.657Z,21.53
2018-12-07T05:50:02.572Z,20.70
2018-12-07T05:52:30.841Z,20.37
2018-12-07T05:54:59.037Z,19.10
2018-12-07T05:57:27.235Z,20.03
2018-12-07T05:59:55.578Z,19.83
2018-12-07T06:02:23.800Z,19.10
2018-12-07T06:04:52.026Z,20.10
2018-12-07T06:07:20.221Z,19.57
2018-12-07T06:09:48.465Z,19.17
2018-12-07T06:12:16.664Z,19.73
2018-12-07T06:14:44.888Z,18.40
2018-12-07T06:17:13.089Z,19.97
2018-12-07T06:19:41.336Z,19.27
2018-12-07T06:22:09.541Z,20.63
2018-12-07T06:24:37.751Z,20.53
2018-12-07T06:27:05.976Z,21.70
2018-12-07T06:29:34.188Z,21.90
2018-12-07T06:32:02.528Z,22.23
2018-12-07T06:34:30.729Z,21.97
2018-12-07T06:36:58.957Z,22.73
2018-12-07T06:39:27.157Z,22.70
2018-12-07T06:41:55.376Z,22.63
2018-12-07T06:44:23.597Z,21.83
2018-12-07T06:46:51.818Z,21.73
2018-12-07T06:49:20.037Z,19.30
2018-12-07T06:51:48.364Z,19.27
2018-12-07T06:54:16.596Z,19.00
2018-12-07T06:56:44.786Z,18.77
2018-12-07T06:59:12.983Z,19.03
2018-12-07T07:01:41.216Z,18.40
2018-12-07T07:04:09.484Z,18.27
2018-12-07T07:06:37.829Z,19.30
2018-12-07T07:09:08.324Z,20.07
2018-12-07T07:11:36.780Z,21.50
2018-12-07T07:14:05.400Z,21.07
2018-12-07T07:16:33.700Z,21.37
2018-12-07T07:19:01.940Z,22.43
2018-12-07T07:21:30.132Z,22.93
2018-12-07T07:23:58.325Z,23.13
2018-12-07T07:26:26.606Z,24.50
2018-12-07T07:28:54.808Z,27.17
2018-12-07T07:31:23.105Z,25.53
2018-12-07T07:33:51.334Z,27.20
2018-12-07T07:36:19.569Z,27.83
2018-12-07T07:38:47.765Z,25.93
2018-12-07T07:41:15.956Z,26.50
2018-12-07T07:43:45.911Z,28.13
2018-12-07T07:46:14.315Z,24.73
2018-12-07T07:48:42.528Z,24.90
2018-12-07T07:51:10.758Z,26.03
2018-12-07T07:53:38.985Z,24.10
2018-12-07T07:56:15.182Z,24.43
2018-12-07T07:58:38.154Z,22.57
2018-12-07T08:01:06.356Z,24.90
2018-12-07T08:03:34.588Z,22.90
2018-12-07T08:06:02.876Z,22.40
2018-12-07T08:08:31.250Z,22.73
2018-12-07T08:10:59.469Z,24.73
2018-12-07T08:13:27.706Z,21.77
2018-12-07T08:15:55.954Z,21.40
2018-12-07T08:18:24.189Z,24.57
2018-12-07T08:20:52.429Z,25.17
2018-12-07T08:23:20.644Z,25.17
2018-12-07T08:25:48.840Z,25.37
2018-12-07T08:28:17.199Z,25.40
2018-12-07T08:30:45.370Z,25.70
2018-12-07T08:33:13.588Z,25.50
2018-12-07T08:35:42.041Z,25.43
2018-12-07T08:38:10.286Z,23.77
2018-12-07T08:40:38.580Z,23.77
2018-12-07T08:43:06.779Z,23.53
2018-12-07T08:45:35.029Z,21.00
2018-12-07T08:48:03.337Z,20.57
2018-12-07T08:50:31.569Z,21.80
2018-12-07T08:52:59.757Z,20.90
2018-12-07T08:55:27.953Z,18.67
2018-12-07T08:57:56.173Z,18.20
2018-12-07T09:00:24.586Z,20.40
2018-12-07T09:02:52.793Z,18.57
2018-12-07T09:05:21.025Z,18.80
2018-12-07T09:07:49.221Z,17.87
2018-12-07T09:10:17.446Z,17.93
2018-12-07T09:12:46.002Z,17.73
2018-12-07T09:15:14.289Z,16.70
2018-12-07T09:17:42.533Z,16.63
2018-12-07T09:20:10.729Z,16.53
2018-12-07T09:22:38.960Z,16.60
2018-12-07T09:25:07.588Z,16.50
2018-12-07T09:27:35.861Z,16.37
2018-12-07T09:30:04.905Z,16.60
2018-12-07T09:32:33.133Z,17.10
2018-12-07T09:35:01.421Z,16.80
2018-12-07T09:37:29.703Z,16.13
2018-12-07T09:39:58.025Z,15.90
2018-12-07T09:42:26.366Z,15.40
2018-12-07T09:44:54.547Z,17.20
2018-12-07T09:47:22.764Z,17.30
2018-12-07T09:49:50.992Z,32.00
2018-12-07T09:52:19.272Z,23.90
2018-12-07T09:54:47.508Z,22.80
2018-12-07T09:57:15.762Z,22.20
2018-12-07T09:59:43.980Z,23.90
2018-12-07T10:02:12.210Z,24.03
2018-12-07T10:04:40.435Z,24.27
2018-12-07T10:07:08.757Z,22.73
2018-12-07T10:09:36.981Z,24.50
2018-12-07T10:12:05.248Z,23.87
2018-12-07T10:14:33.481Z,22.00
2018-12-07T10:17:01.708Z,22.10
2018-12-07T10:19:29.900Z,20.93
2018-12-07T10:21:58.100Z,20.43
2018-12-07T10:24:26.320Z,20.67
2018-12-07T10:26:54.652Z,20.80
2018-12-07T10:29:22.880Z,21.87
2018-12-07T10:31:51.081Z,20.37
2018-12-07T10:34:19.313Z,19.90
2018-12-07T10:36:47.513Z,21.53
2018-12-07T10:39:15.744Z,19.80
2018-12-07T10:41:43.977Z,20.40
2018-12-07T10:44:12.210Z,19.50
2018-12-07T10:46:40.437Z,18.20
2018-12-07T10:49:08.761Z,18.23
2018-12-07T10:51:36.984Z,18.67
2018-12-07T10:54:05.201Z,15.97
2018-12-07T10:56:33.419Z,16.43
2018-12-07T10:59:01.653Z,16.60
2018-12-07T11:01:35.411Z,16.80
2018-12-07T11:04:09.161Z,16.00
2018-12-07T11:06:42.593Z,16.67
2018-12-07T11:09:16.137Z,16.97
2018-12-07T11:11:51.572Z,16.97
2018-12-07T11:14:25.162Z,16.87
2018-12-07T11:16:58.628Z,17.13
2018-12-07T11:19:32.306Z,16.83
2018-12-07T11:22:05.965Z,16.80
2018-12-07T11:24:39.441Z,16.73
2018-12-07T11:27:13.679Z,16.53
2018-12-07T11:29:47.368Z,16.70
2018-12-07T11:32:19.029Z,17.73
2018-12-07T11:34:51.677Z,17.53
2018-12-07T11:37:19.869Z,16.10
2018-12-07T11:39:48.463Z,17.60
2018-12-07T11:42:16.672Z,16.40
2018-12-07T11:44:44.872Z,15.90
2018-12-07T11:47:13.094Z,16.60
2018-12-07T11:49:41.277Z,19.20
2018-12-07T11:52:09.503Z,16.30
2018-12-07T11:54:37.693Z,16.67
2018-12-07T11:57:05.909Z,16.70
2018-12-07T11:59:34.160Z,15.60
2018-12-07T12:02:02.381Z,15.93
2018-12-07T12:04:30.597Z,15.90
2018-12-07T12:06:58.817Z,16.83
2018-12-07T12:09:27.027Z,15.20
2018-12-07T12:11:55.243Z,15.70
2018-12-07T12:14:23.441Z,15.47
2018-12-07T12:16:51.671Z,14.27
2018-12-07T12:19:19.880Z,15.10
2018-12-07T12:21:48.221Z,15.43
2018-12-07T12:24:16.425Z,14.60
2018-12-07T12:26:44.609Z,15.00
2018-12-07T12:29:12.841Z,15.40
2018-12-07T12:31:41.118Z,14.83
2018-12-07T12:34:09.347Z,14.80
2018-12-07T12:36:37.538Z,15.10
2018-12-07T12:39:07.509Z,15.37
2018-12-07T12:41:35.721Z,15.00
2018-12-07T12:44:04.097Z,15.93
2018-12-07T12:46:32.311Z,15.63
2018-12-07T12:49:00.517Z,15.10
2018-12-07T12:51:28.734Z,15.17
2018-12-07T12:53:57.508Z,15.40
2018-12-07T12:56:25.753Z,15.30
2018-12-07T12:58:53.984Z,15.70
2018-12-07T13:01:22.177Z,15.63
2018-12-07T13:03:50.468Z,16.20
2018-12-07T13:06:18.805Z,16.47
2018-12-07T13:08:46.984Z,16.07
2018-12-07T13:11:15.228Z,15.63
2018-12-07T13:13:43.445Z,15.27
2018-12-07T13:16:11.885Z,15.20
2018-12-07T13:18:40.103Z,15.73
2018-12-07T13:21:08.293Z,15.53
2018-12-07T13:23:36.565Z,15.60
2018-12-07T13:26:04.761Z,16.10
2018-12-07T13:28:32.978Z,15.63
2018-12-07T13:31:01.218Z,16.00
2018-12-07T13:33:29.438Z,15.33
2018-12-07T13:35:57.668Z,16.17
2018-12-07T13:38:25.889Z,15.13
2018-12-07T13:40:54.097Z,16.07
2018-12-07T13:43:22.779Z,16.40
2018-12-07T13:45:51.069Z,15.90
2018-12-07T13:48:19.483Z,16.60
2018-12-07T13:50:47.816Z,16.63
2018-12-07T13:53:16.234Z,18.07
2018-12-07T13:55:44.947Z,17.60
2018-12-07T13:58:13.356Z,17.50
2018-12-07T14:00:41.877Z,16.50
2018-12-07T14:03:10.365Z,17.47
2018-12-07T14:05:38.662Z,17.77
2018-12-07T14:08:07.092Z,18.00
2018-12-07T14:10:35.616Z,18.30
2018-12-07T14:13:04.030Z,18.40
2018-12-07T14:15:32.578Z,18.30
2018-12-07T14:18:01.015Z,17.90
2018-12-07T14:20:29.444Z,18.83
2018-12-07T14:22:57.927Z,17.60
2018-12-07T14:25:26.230Z,18.40
2018-12-07T14:27:54.639Z,19.33
2018-12-07T14:30:23.176Z,18.57
2018-12-07T14:32:51.563Z,19.80
2018-12-07T14:35:20.049Z,18.90
2018-12-07T14:37:48.570Z,19.30
2018-12-07T14:40:16.986Z,19.53
2018-12-07T14:42:45.575Z,20.67
2018-12-07T14:45:13.896Z,21.00
2018-12-07T14:47:42.469Z,20.70
2018-12-07T14:50:11.001Z,19.90
2018-12-07T14:52:39.234Z,20.70
2018-12-07T14:55:07.743Z,19.13
2018-12-07T14:57:36.198Z,19.83
2018-12-07T15:00:06.750Z,18.90
2018-12-07T15:02:35.151Z,18.57
2018-12-07T15:05:04.217Z,19.63
2018-12-07T15:07:32.636Z,19.30
2018-12-07T15:10:00.973Z,18.70
2018-12-07T15:12:29.431Z,19.13
2018-12-07T15:14:57.779Z,19.37
2018-12-07T15:17:26.048Z,19.47
2018-12-07T15:19:54.423Z,18.83
2018-12-07T15:22:22.689Z,20.67
2018-12-07T15:24:51.035Z,20.90
2018-12-07T15:27:19.484Z,21.57
2018-12-07T15:29:47.946Z,20.67
2018-12-07T15:32:16.278Z,21.33
2018-12-07T15:34:44.776Z,20.50
2018-12-07T15:37:13.228Z,21.50
2018-12-07T15:39:41.450Z,21.63
2018-12-07T15:42:09.773Z,21.03
2018-12-07T15:44:38.052Z,21.77
2018-12-07T15:47:06.714Z,20.13
2018-12-07T15:49:37.184Z,20.80
2018-12-07T15:52:05.805Z,21.23
2018-12-07T15:54:34.248Z,21.50
2018-12-07T15:57:02.501Z,21.73
2018-12-07T15:59:34.474Z,23.17
2018-12-07T16:02:01.010Z,24.53
2018-12-07T16:04:29.408Z,24.53
2018-12-07T16:06:57.721Z,24.63
2018-12-07T16:09:26.103Z,25.97
2018-12-07T16:11:54.404Z,23.50
2018-12-07T16:14:22.641Z,24.00
2018-12-07T16:16:51.209Z,24.67
2018-12-07T16:19:19.586Z,23.33
2018-12-07T16:21:48.101Z,24.80
2018-12-07T16:24:16.613Z,22.63
2018-12-07T16:26:45.197Z,22.47
2018-12-07T16:29:13.556Z,22.70
2018-12-07T16:31:42.027Z,23.77
2018-12-07T16:34:10.457Z,23.13
2018-12-07T16:36:38.793Z,23.23
2018-12-07T16:39:08.391Z,23.87
2018-12-07T16:41:36.973Z,23.17
2018-12-07T16:44:05.425Z,23.27
2018-12-07T16:46:33.790Z,24.87
2018-12-07T16:49:02.406Z,23.37
2018-12-07T16:51:30.849Z,24.03
2018-12-07T16:53:59.170Z,25.10
2018-12-07T16:56:27.845Z,27.13
2018-12-07T16:58:56.271Z,25.67
2018-12-07T17:01:24.692Z,24.63
2018-12-07T17:03:53.381Z,25.00
2018-12-07T17:06:21.823Z,25.17
2018-12-07T17:08:50.335Z,25.40
2018-12-07T17:11:18.996Z,25.73
2018-12-07T17:13:47.609Z,26.67
2018-12-07T17:16:15.934Z,25.33
2018-12-07T17:18:44.167Z,24.33
2018-12-07T17:21:12.492Z,26.33
2018-12-07T17:23:41.103Z,25.07
2018-12-07T17:26:09.397Z,25.67
2018-12-07T17:28:37.669Z,24.37
2018-12-07T17:31:05.865Z,24.20
2018-12-07T17:33:34.165Z,23.50
2018-12-07T17:36:02.464Z,24.10
2018-12-07T17:38:30.752Z,23.63
2018-12-07T17:40:59.143Z,22.80
2018-12-07T17:43:27.552Z,22.60
2018-12-07T17:45:56.082Z,22.00
2018-12-07T17:48:24.683Z,22.93
2018-12-07T17:50:53.139Z,22.90
2018-12-07T17:53:21.608Z,22.70
2018-12-07T17:55:50.041Z,21.70
2018-12-07T18:01:02.004Z,20.77
2018-12-07T18:03:30.445Z,21.40
2018-12-07T18:05:58.844Z,21.80
2018-12-07T18:08:27.147Z,21.43
2018-12-07T18:10:55.725Z,20.80
2018-12-07T18:13:24.096Z,21.30
2018-12-07T18:15:52.369Z,21.30
2018-12-07T18:18:20.833Z,21.57
2018-12-07T18:20:49.324Z,21.60
2018-12-07T18:23:17.645Z,21.17
2018-12-07T18:25:46.017Z,22.47
2018-12-07T18:28:14.437Z,21.93
2018-12-07T18:30:42.732Z,21.47
2018-12-07T18:33:11.138Z,22.00
2018-12-07T18:35:39.548Z,22.20
2018-12-07T18:38:08.537Z,21.27
2018-12-07T18:40:37.075Z,20.77
2018-12-07T18:43:05.634Z,21.43
2018-12-07T18:45:34.188Z,21.37
2018-12-07T18:48:02.654Z,22.20
2018-12-07T18:50:31.084Z,22.13
2018-12-07T18:53:00.133Z,22.40
2018-12-07T18:55:28.428Z,23.70
2018-12-07T18:57:56.729Z,22.33
2018-12-07T19:00:25.320Z,22.43
2018-12-07T19:02:53.749Z,22.43
2018-12-07T19:05:22.327Z,23.20
2018-12-07T19:07:50.880Z,23.37
2018-12-07T19:10:19.438Z,24.80
2018-12-07T19:12:47.808Z,22.50
2018-12-07T19:15:16.178Z,23.30
2018-12-07T19:17:44.547Z,23.03
2018-12-07T19:20:13.089Z,23.20
2018-12-07T19:22:41.405Z,24.00
2018-12-07T19:25:09.723Z,24.80
2018-12-07T19:27:37.993Z,24.00
2018-12-07T19:30:14.609Z,24.40
2018-12-07T19:32:40.386Z,26.20
2018-12-07T19:35:08.764Z,24.07
2018-12-07T19:37:37.293Z,24.80
2018-12-07T19:40:06.538Z,24.37
2018-12-07T19:42:34.977Z,24.00
2018-12-07T19:45:03.674Z,23.67
2018-12-07T19:47:32.138Z,23.03
2018-12-07T19:50:00.443Z,23.00
2018-12-07T19:52:28.931Z,23.30
2018-12-07T19:54:57.574Z,22.90
2018-12-07T19:57:25.977Z,23.83
2018-12-07T19:59:54.501Z,14.27
2018-12-07T20:02:22.764Z,14.83
2018-12-07T20:04:51.110Z,14.20
2018-12-07T20:07:19.501Z,16.10
2018-12-07T20:09:48.040Z,13.37
2018-12-07T20:12:16.307Z,14.70
2018-12-07T20:14:44.757Z,13.20
2018-12-07T20:17:13.118Z,13.33
2018-12-07T20:19:41.324Z,15.60
2018-12-07T20:22:09.706Z,14.10
2018-12-07T20:24:38.166Z,14.20
2018-12-07T20:27:06.710Z,15.40
2018-12-07T20:29:35.343Z,23.10
2018-12-07T20:32:03.885Z,16.63
2018-12-07T20:34:32.192Z,16.90
2018-12-07T20:37:00.588Z,17.30
2018-12-07T20:39:29.493Z,15.23
2018-12-07T20:41:57.963Z,18.80
2018-12-07T20:44:26.337Z,18.80
2018-12-07T20:46:54.911Z,14.83
2018-12-07T20:49:23.998Z,15.70
2018-12-07T20:51:52.615Z,17.10
2018-12-07T20:54:21.040Z,15.63
2018-12-07T20:56:49.419Z,15.37
2018-12-07T20:59:17.805Z,17.37
2018-12-07T21:01:51.616Z,20.33
2018-12-07T21:04:38.286Z,16.10
2018-12-07T21:08:14.533Z,20.20
2018-12-07T21:11:19.387Z,16.87
2018-12-07T21:14:39.984Z,18.43
2018-12-07T21:17:15.789Z,28.37
2018-12-07T21:19:48.275Z,19.80
2018-12-07T21:22:16.938Z,18.87
2018-12-07T21:24:45.309Z,22.03
2018-12-07T21:27:13.854Z,18.00
2018-12-07T21:29:42.291Z,17.93
2018-12-07T21:32:16.260Z,15.40
2018-12-07T21:34:55.318Z,17.03
2018-12-07T21:37:23.957Z,16.97
2018-12-07T21:40:03.644Z,19.20
2018-12-07T21:42:31.918Z,19.47
2018-12-07T21:45:00.112Z,15.33
2018-12-07T21:47:58.713Z,16.60
2018-12-07T21:50:27.104Z,15.43
2018-12-07T21:52:55.447Z,27.30
2018-12-07T21:55:23.997Z,16.13
2018-12-07T21:57:52.451Z,19.30
2018-12-07T22:00:20.828Z,16.07
2018-12-07T22:02:49.306Z,15.40
2018-12-07T22:05:17.797Z,15.70
2018-12-07T22:07:46.377Z,15.70
2018-12-07T22:10:14.943Z,20.93
2018-12-07T22:12:43.317Z,28.27
2018-12-07T22:15:11.621Z,18.37
2018-12-07T22:17:40.378Z,17.83
2018-12-07T22:20:08.751Z,17.60
2018-12-07T22:22:37.000Z,20.67
2018-12-07T22:25:05.497Z,18.03
2018-12-07T22:27:33.866Z,15.93
2018-12-07T22:30:02.260Z,17.03
2018-12-07T22:32:30.739Z,17.47
2018-12-07T22:34:59.207Z,22.80
2018-12-07T22:37:27.910Z,15.50
2018-12-07T22:39:56.427Z,15.50
2018-12-07T22:42:24.800Z,15.83
2018-12-07T22:44:53.163Z,14.33
2018-12-07T22:47:21.764Z,16.10
2018-12-07T22:49:50.076Z,13.40
2018-12-07T22:52:18.308Z,17.70
2018-12-07T22:54:46.525Z,20.83
2018-12-07T22:57:14.761Z,16.27
2018-12-07T22:59:42.978Z,17.43
2018-12-07T23:02:11.804Z,16.63
2018-12-07T23:04:40.065Z,15.70
2018-12-07T23:07:08.352Z,14.97
2018-12-07T23:09:36.962Z,17.73
2018-12-07T23:12:05.396Z,16.40
2018-12-07T23:14:33.837Z,15.17
2018-12-07T23:17:02.055Z,26.97
2018-12-07T23:19:30.292Z,16.30
2018-12-07T23:21:58.501Z,16.07
2018-12-07T23:24:26.698Z,22.87
2018-12-07T23:26:54.948Z,16.40
2018-12-07T23:29:23.714Z,22.33
2018-12-07T23:31:52.048Z,17.17
2018-12-07T23:34:20.321Z,15.83
2018-12-07T23:36:48.517Z,17.07
2018-12-07T23:39:16.881Z,19.80
2018-12-07T23:41:45.124Z,32.20
2018-12-07T23:44:13.442Z,20.00
2018-12-07T23:46:41.660Z,26.83
2018-12-07T23:49:09.901Z,22.30
2018-12-07T23:51:38.112Z,27.43
2018-12-07T23:54:06.374Z,16.33
2018-12-07T23:56:34.701Z,21.37
2018-12-07T23:59:03.001Z,20.83
